sensor_id;sensor_type;location;lat;lon;timestamp;P1;durP1;ratioP1;P2;durP2;ratioP2
19364;SDS011;9818;48.382;10.850;2022-10-03T00:02:02;4.40;;;1.90;;
19364;SDS011;9818;48.382;10.850;2022-10-03T00:04:44;1.80;;;1.70;;
19364;SDS011;9818;48.382;10.850;2022-10-03T00:07:30;2.17;;;1.97;;
19364;SDS011;9818;48.382;10.850;2022-10-03T01:19:57;2.47;;;2.27;;
19364;SDS011;9818;48.382;10.850;2022-10-03T01:22:53;2.57;;;2.37;;
19364;SDS011;9818;48.382;10.850;2022-10-03T01:25:50;3.27;;;2.70;;
19364;SDS011;9818;48.382;10.850;2022-10-03T01:28:40;3.17;;;2.40;;
19364;SDS011;9818;48.382;10.850;2022-10-03T01:31:27;3.50;;;2.57;;
19364;SDS011;9818;48.382;10.850;2022-10-03T01:34:03;3.73;;;2.67;;
19364;SDS011;9818;48.382;10.850;2022-10-03T01:36:38;2.60;;;2.40;;
19364;SDS011;9818;48.382;10.850;2022-10-03T01:39:14;3.13;;;2.83;;
19364;SDS011;9818;48.382;10.850;2022-10-03T01:41:49;3.40;;;2.60;;
19364;SDS011;9818;48.382;10.850;2022-10-03T01:44:28;2.87;;;2.57;;
19364;SDS011;9818;48.382;10.850;2022-10-03T01:47:12;2.77;;;2.50;;
19364;SDS011;9818;48.382;10.850;2022-10-03T01:49:47;3.53;;;2.43;;
19364;SDS011;9818;48.382;10.850;2022-10-03T01:52:27;3.50;;;2.77;;
19364;SDS011;9818;48.382;10.850;2022-10-03T01:55:07;2.97;;;2.67;;
19364;SDS011;9818;48.382;10.850;2022-10-03T01:57:43;4.13;;;2.60;;
19364;SDS011;9818;48.382;10.850;2022-10-03T02:00:20;2.67;;;2.40;;
19364;SDS011;9818;48.382;10.850;2022-10-03T02:02:53;4.33;;;3.00;;
19364;SDS011;9818;48.382;10.850;2022-10-03T02:05:35;2.73;;;2.50;;
19364;SDS011;9818;48.382;10.850;2022-10-03T02:08:15;2.87;;;2.57;;
19364;SDS011;9818;48.382;10.850;2022-10-03T02:10:55;4.57;;;2.80;;
19364;SDS011;9818;48.382;10.850;2022-10-03T02:13:30;3.67;;;2.57;;
19364;SDS011;9818;48.382;10.850;2022-10-03T02:16:13;3.00;;;2.63;;
19364;SDS011;9818;48.382;10.850;2022-10-03T02:18:49;3.00;;;2.70;;
19364;SDS011;9818;48.382;10.850;2022-10-03T02:21:23;3.17;;;2.50;;
19364;SDS011;9818;48.382;10.850;2022-10-03T02:24:03;3.07;;;2.77;;
19364;SDS011;9818;48.382;10.850;2022-10-03T02:29:55;3.47;;;3.10;;
19364;SDS011;9818;48.382;10.850;2022-10-03T02:35:53;4.37;;;2.80;;
19364;SDS011;9818;48.382;10.850;2022-10-03T02:41:46;3.43;;;2.67;;
19364;SDS011;9818;48.382;10.850;2022-10-03T02:44:51;3.53;;;3.10;;
19364;SDS011;9818;48.382;10.850;2022-10-03T02:47:54;3.00;;;2.70;;
19364;SDS011;9818;48.382;10.850;2022-10-03T02:50:46;3.47;;;3.17;;
19364;SDS011;9818;48.382;10.850;2022-10-03T03:00:04;3.83;;;3.43;;
19364;SDS011;9818;48.382;10.850;2022-10-03T03:02:47;4.40;;;3.40;;
19364;SDS011;9818;48.382;10.850;2022-10-03T03:08:40;5.23;;;3.50;;
19364;SDS011;9818;48.382;10.850;2022-10-03T03:11:32;4.37;;;3.07;;
19364;SDS011;9818;48.382;10.850;2022-10-03T03:14:42;5.30;;;3.23;;
19364;SDS011;9818;48.382;10.850;2022-10-03T03:17:36;3.13;;;2.83;;
19364;SDS011;9818;48.382;10.850;2022-10-03T03:20:17;4.23;;;3.60;;
19364;SDS011;9818;48.382;10.850;2022-10-03T03:23:04;4.23;;;3.30;;
19364;SDS011;9818;48.382;10.850;2022-10-03T03:26:03;4.40;;;3.60;;
19364;SDS011;9818;48.382;10.850;2022-10-03T03:28:49;4.20;;;3.60;;
19364;SDS011;9818;48.382;10.850;2022-10-03T03:31:25;5.53;;;3.23;;
19364;SDS011;9818;48.382;10.850;2022-10-03T03:34:02;4.53;;;3.47;;
19364;SDS011;9818;48.382;10.850;2022-10-03T03:36:37;4.47;;;3.87;;
19364;SDS011;9818;48.382;10.850;2022-10-03T03:39:29;4.17;;;3.73;;
19364;SDS011;9818;48.382;10.850;2022-10-03T03:42:19;4.97;;;3.40;;
19364;SDS011;9818;48.382;10.850;2022-10-03T03:45:21;3.97;;;3.23;;
19364;SDS011;9818;48.382;10.850;2022-10-03T03:51:06;3.80;;;3.23;;
19364;SDS011;9818;48.382;10.850;2022-10-03T03:53:48;4.33;;;3.73;;
19364;SDS011;9818;48.382;10.850;2022-10-03T03:56:34;3.90;;;3.00;;
19364;SDS011;9818;48.382;10.850;2022-10-03T03:59:22;5.33;;;3.03;;
19364;SDS011;9818;48.382;10.850;2022-10-03T04:02:09;3.83;;;3.17;;
19364;SDS011;9818;48.382;10.850;2022-10-03T04:04:54;3.67;;;2.97;;
19364;SDS011;9818;48.382;10.850;2022-10-03T04:07:37;3.70;;;3.20;;
19364;SDS011;9818;48.382;10.850;2022-10-03T04:13:12;4.17;;;2.73;;
19364;SDS011;9818;48.382;10.850;2022-10-03T04:16:10;4.40;;;2.73;;
19364;SDS011;9818;48.382;10.850;2022-10-03T04:19:07;3.87;;;3.43;;
19364;SDS011;9818;48.382;10.850;2022-10-03T04:21:50;4.17;;;3.40;;
19364;SDS011;9818;48.382;10.850;2022-10-03T04:24:42;3.87;;;3.47;;
19364;SDS011;9818;48.382;10.850;2022-10-03T04:30:29;4.63;;;3.27;;
19364;SDS011;9818;48.382;10.850;2022-10-03T04:33:11;3.53;;;3.17;;
19364;SDS011;9818;48.382;10.850;2022-10-03T04:38:53;3.77;;;2.70;;
19364;SDS011;9818;48.382;10.850;2022-10-03T04:41:31;3.87;;;3.40;;
19364;SDS011;9818;48.382;10.850;2022-10-03T04:44:09;4.17;;;3.53;;
19364;SDS011;9818;48.382;10.850;2022-10-03T04:46:46;10.70;;;4.67;;
19364;SDS011;9818;48.382;10.850;2022-10-03T04:49:23;16.37;;;4.50;;
19364;SDS011;9818;48.382;10.850;2022-10-03T04:52:03;6.57;;;4.03;;
19364;SDS011;9818;48.382;10.850;2022-10-03T04:54:53;7.23;;;4.23;;
19364;SDS011;9818;48.382;10.850;2022-10-03T04:57:34;6.73;;;3.73;;
19364;SDS011;9818;48.382;10.850;2022-10-03T05:00:15;6.27;;;3.70;;
19364;SDS011;9818;48.382;10.850;2022-10-03T05:02:56;9.30;;;3.37;;
19364;SDS011;9818;48.382;10.850;2022-10-03T05:05:34;5.57;;;3.20;;
19364;SDS011;9818;48.382;10.850;2022-10-03T05:08:17;5.57;;;2.73;;
19364;SDS011;9818;48.382;10.850;2022-10-03T05:10:59;13.97;;;2.90;;
19364;SDS011;9818;48.382;10.850;2022-10-03T05:13:38;6.00;;;2.97;;
19364;SDS011;9818;48.382;10.850;2022-10-03T05:16:19;5.60;;;3.33;;
19364;SDS011;9818;48.382;10.850;2022-10-03T05:19:01;4.87;;;3.17;;
19364;SDS011;9818;48.382;10.850;2022-10-03T05:21:48;6.70;;;3.07;;
19364;SDS011;9818;48.382;10.850;2022-10-03T05:24:27;9.90;;;3.50;;
19364;SDS011;9818;48.382;10.850;2022-10-03T05:27:06;5.40;;;3.40;;
19364;SDS011;9818;48.382;10.850;2022-10-03T05:29:52;8.93;;;3.03;;
19364;SDS011;9818;48.382;10.850;2022-10-03T05:32:30;9.23;;;3.90;;
19364;SDS011;9818;48.382;10.850;2022-10-03T05:35:12;6.17;;;3.63;;
19364;SDS011;9818;48.382;10.850;2022-10-03T05:37:58;6.43;;;3.47;;
19364;SDS011;9818;48.382;10.850;2022-10-03T05:41:06;7.27;;;3.93;;
19364;SDS011;9818;48.382;10.850;2022-10-03T05:43:46;6.83;;;3.60;;
19364;SDS011;9818;48.382;10.850;2022-10-03T05:49:26;9.03;;;4.30;;
19364;SDS011;9818;48.382;10.850;2022-10-03T05:52:19;7.30;;;3.93;;
19364;SDS011;9818;48.382;10.850;2022-10-03T05:58:24;5.13;;;3.83;;
19364;SDS011;9818;48.382;10.850;2022-10-03T06:01:10;6.70;;;4.03;;
19364;SDS011;9818;48.382;10.850;2022-10-03T06:07:01;5.23;;;4.23;;
19364;SDS011;9818;48.382;10.850;2022-10-03T06:09:55;4.17;;;3.63;;
19364;SDS011;9818;48.382;10.850;2022-10-03T06:12:42;5.40;;;4.20;;
19364;SDS011;9818;48.382;10.850;2022-10-03T06:15:23;7.33;;;5.17;;
19364;SDS011;9818;48.382;10.850;2022-10-03T06:18:13;7.97;;;5.33;;
19364;SDS011;9818;48.382;10.850;2022-10-03T06:21:11;7.20;;;6.00;;
19364;SDS011;9818;48.382;10.850;2022-10-03T06:23:57;7.10;;;5.20;;
19364;SDS011;9818;48.382;10.850;2022-10-03T06:26:44;4.83;;;4.33;;
19364;SDS011;9818;48.382;10.850;2022-10-03T06:45:18;4.27;;;3.80;;
19364;SDS011;9818;48.382;10.850;2022-10-03T06:48:03;5.27;;;3.90;;
19364;SDS011;9818;48.382;10.850;2022-10-03T06:50:52;4.87;;;3.90;;
19364;SDS011;9818;48.382;10.850;2022-10-03T06:56:47;4.80;;;3.93;;
19364;SDS011;9818;48.382;10.850;2022-10-03T07:11:38;5.87;;;4.30;;
19364;SDS011;9818;48.382;10.850;2022-10-03T07:17:25;4.97;;;4.33;;
19364;SDS011;9818;48.382;10.850;2022-10-03T08:24:08;5.23;;;4.00;;
19364;SDS011;9818;48.382;10.850;2022-10-03T08:27:05;5.17;;;3.43;;
19364;SDS011;9818;48.382;10.850;2022-10-03T08:32:56;5.40;;;3.67;;
19364;SDS011;9818;48.382;10.850;2022-10-03T08:35:52;5.50;;;3.90;;
19364;SDS011;9818;48.382;10.850;2022-10-03T08:45:09;4.87;;;3.87;;
19364;SDS011;9818;48.382;10.850;2022-10-03T08:54:12;6.87;;;4.00;;
19364;SDS011;9818;48.382;10.850;2022-10-03T08:57:06;6.27;;;4.23;;
19364;SDS011;9818;48.382;10.850;2022-10-03T08:59:53;5.00;;;4.20;;
19364;SDS011;9818;48.382;10.850;2022-10-03T09:02:51;7.10;;;5.40;;
19364;SDS011;9818;48.382;10.850;2022-10-03T09:09:06;5.73;;;4.90;;
19364;SDS011;9818;48.382;10.850;2022-10-03T09:12:17;5.40;;;4.37;;
19364;SDS011;9818;48.382;10.850;2022-10-03T09:15:15;6.57;;;4.43;;
19364;SDS011;9818;48.382;10.850;2022-10-03T09:35:52;5.10;;;3.93;;
19364;SDS011;9818;48.382;10.850;2022-10-03T09:38:51;5.70;;;4.30;;
19364;SDS011;9818;48.382;10.850;2022-10-03T09:48:00;4.53;;;3.70;;
19364;SDS011;9818;48.382;10.850;2022-10-03T09:50:59;5.00;;;3.33;;
19364;SDS011;9818;48.382;10.850;2022-10-03T09:56:52;4.43;;;3.87;;
19364;SDS011;9818;48.382;10.850;2022-10-03T10:02:50;7.30;;;4.17;;
19364;SDS011;9818;48.382;10.850;2022-10-03T10:05:49;5.03;;;3.73;;
19364;SDS011;9818;48.382;10.850;2022-10-03T10:11:50;4.53;;;3.50;;
19364;SDS011;9818;48.382;10.850;2022-10-03T10:20:18;5.27;;;3.60;;
19364;SDS011;9818;48.382;10.850;2022-10-03T10:23:19;3.87;;;3.20;;
19364;SDS011;9818;48.382;10.850;2022-10-03T10:44:28;3.80;;;2.87;;
19364;SDS011;9818;48.382;10.850;2022-10-03T10:47:42;2.87;;;2.57;;
19364;SDS011;9818;48.382;10.850;2022-10-03T10:53:59;3.43;;;2.70;;
19364;SDS011;9818;48.382;10.850;2022-10-03T10:56:59;2.90;;;2.50;;
19364;SDS011;9818;48.382;10.850;2022-10-03T11:15:12;3.47;;;2.20;;
19364;SDS011;9818;48.382;10.850;2022-10-03T11:18:13;2.27;;;1.90;;
19364;SDS011;9818;48.382;10.850;2022-10-03T11:24:15;3.17;;;2.10;;
19364;SDS011;9818;48.382;10.850;2022-10-03T11:36:45;4.33;;;2.80;;
19364;SDS011;9818;48.382;10.850;2022-10-03T11:55:19;2.80;;;2.13;;
19364;SDS011;9818;48.382;10.850;2022-10-03T11:58:00;6.30;;;3.33;;
19364;SDS011;9818;48.382;10.850;2022-10-03T12:00:40;4.40;;;3.00;;
19364;SDS011;9818;48.382;10.850;2022-10-03T12:03:18;5.20;;;3.53;;
19364;SDS011;9818;48.382;10.850;2022-10-03T16:00:46;4.73;;;1.90;;
19364;SDS011;9818;48.382;10.850;2022-10-03T16:03:22;4.07;;;2.07;;
19364;SDS011;9818;48.382;10.850;2022-10-03T16:05:59;4.43;;;2.23;;
19364;SDS011;9818;48.382;10.850;2022-10-03T16:08:38;6.67;;;2.20;;
19364;SDS011;9818;48.382;10.850;2022-10-03T16:11:14;3.53;;;2.00;;
19364;SDS011;9818;48.382;10.850;2022-10-03T16:14:02;13.83;;;8.87;;
19364;SDS011;9818;48.382;10.850;2022-10-03T16:16:44;10.93;;;7.40;;
19364;SDS011;9818;48.382;10.850;2022-10-03T16:19:24;5.63;;;3.80;;
19364;SDS011;9818;48.382;10.850;2022-10-03T16:22:05;8.07;;;4.30;;
19364;SDS011;9818;48.382;10.850;2022-10-03T16:24:40;4.97;;;3.23;;
19364;SDS011;9818;48.382;10.850;2022-10-03T16:27:15;4.47;;;2.80;;
19364;SDS011;9818;48.382;10.850;2022-10-03T16:29:51;4.63;;;3.03;;
19364;SDS011;9818;48.382;10.850;2022-10-03T16:32:29;3.27;;;2.23;;
19364;SDS011;9818;48.382;10.850;2022-10-03T16:35:02;2.00;;;1.80;;
19364;SDS011;9818;48.382;10.850;2022-10-03T16:37:32;2.80;;;2.20;;
19364;SDS011;9818;48.382;10.850;2022-10-03T16:40:06;3.23;;;1.97;;
19364;SDS011;9818;48.382;10.850;2022-10-03T16:42:45;2.83;;;2.10;;
19364;SDS011;9818;48.382;10.850;2022-10-03T16:45:19;4.47;;;2.77;;
19364;SDS011;9818;48.382;10.850;2022-10-03T16:47:55;3.33;;;2.40;;
19364;SDS011;9818;48.382;10.850;2022-10-03T16:58:14;4.87;;;3.23;;
19364;SDS011;9818;48.382;10.850;2022-10-03T17:00:49;4.97;;;3.67;;
19364;SDS011;9818;48.382;10.850;2022-10-03T17:03:24;9.00;;;4.87;;
19364;SDS011;9818;48.382;10.850;2022-10-03T17:05:57;7.33;;;5.00;;
19364;SDS011;9818;48.382;10.850;2022-10-03T17:08:30;6.10;;;4.37;;
19364;SDS011;9818;48.382;10.850;2022-10-03T17:11:02;11.17;;;5.57;;
19364;SDS011;9818;48.382;10.850;2022-10-03T17:13:38;9.77;;;5.43;;
19364;SDS011;9818;48.382;10.850;2022-10-03T17:16:11;10.20;;;4.87;;
19364;SDS011;9818;48.382;10.850;2022-10-03T17:18:48;7.07;;;4.60;;
19364;SDS011;9818;48.382;10.850;2022-10-03T17:21:24;7.67;;;3.83;;
19364;SDS011;9818;48.382;10.850;2022-10-03T17:23:58;6.57;;;4.07;;
19364;SDS011;9818;48.382;10.850;2022-10-03T17:26:33;5.37;;;3.97;;
19364;SDS011;9818;48.382;10.850;2022-10-03T17:29:09;5.50;;;4.07;;
19364;SDS011;9818;48.382;10.850;2022-10-03T17:31:43;6.00;;;3.30;;
19364;SDS011;9818;48.382;10.850;2022-10-03T17:34:18;9.23;;;4.47;;
19364;SDS011;9818;48.382;10.850;2022-10-03T17:37:08;6.53;;;4.20;;
19364;SDS011;9818;48.382;10.850;2022-10-03T17:39:49;6.23;;;3.07;;
19364;SDS011;9818;48.382;10.850;2022-10-03T17:47:34;3.87;;;2.37;;
19364;SDS011;9818;48.382;10.850;2022-10-03T17:50:21;4.33;;;2.50;;
19364;SDS011;9818;48.382;10.850;2022-10-03T17:52:54;6.43;;;3.90;;
19364;SDS011;9818;48.382;10.850;2022-10-03T17:55:25;5.57;;;3.80;;
19364;SDS011;9818;48.382;10.850;2022-10-03T17:57:58;5.10;;;3.10;;
19364;SDS011;9818;48.382;10.850;2022-10-03T18:00:33;6.57;;;4.67;;
19364;SDS011;9818;48.382;10.850;2022-10-03T18:03:23;5.27;;;3.73;;
19364;SDS011;9818;48.382;10.850;2022-10-03T18:06:23;5.83;;;3.77;;
19364;SDS011;9818;48.382;10.850;2022-10-03T18:24:39;5.57;;;3.97;;
